Time;durP1;ratioP1;P1;durP2;ratioP2;P2;SDS_P1;SDS_P2;PMS_P1;PMS_P2;Temp;Humidity;BMP_temperature;BMP_pressure;BME280_temperature;BME280_humidity;BME280_pressure;Samples;Min_cycle;Max_cycle;Signal;HPM_P1;HPM_P2
2022/10/22 00:01:16;;;;;;;0.10;0.10;;;;;;;;;;6221467;23;20008;-91
2022/10/22 00:03:42;;;;;;;0.10;0.10;;;;;;;;;;6220036;23;20020;-92
2022/10/22 00:06:08;;;;;;;0.10;0.10;;;;;;;;;;6220653;23;20008;-92
2022/10/22 00:08:34;;;;;;;0.10;0.10;;;;;;;;;;6220421;23;20044;-91
2022/10/22 00:11:07;;;;;;;0.28;0.28;;;;;;;;;;6219896;23;20023;-91
2022/10/22 00:13:33;;;;;;;0.10;0.10;;;;;;;;;;6220198;23;20016;-91
2022/10/22 00:15:59;;;;;;;0.10;0.10;;;;;;;;;;6220448;23;20016;-91
2022/10/22 00:18:24;;;;;;;0.10;0.10;;;;;;;;;;6220362;23;20012;-91
2022/10/22 00:20:50;;;;;;;0.10;0.10;;;;;;;;;;6220435;23;20024;-91
2022/10/22 00:23:16;;;;;;;0.10;0.10;;;;;;;;;;6221049;23;20047;-91
2022/10/22 00:25:42;;;;;;;0.10;0.10;;;;;;;;;;6220340;23;20173;-91
2022/10/22 00:28:10;;;;;;;0.10;0.10;;;;;;;;;;6224096;23;20461;-92
2022/10/22 00:30:36;;;;;;;0.10;0.10;;;;;;;;;;6225276;23;20062;-92
2022/10/22 00:33:02;;;;;;;0.20;0.20;;;;;;;;;;6226540;23;20445;-93
2022/10/22 00:35:28;;;;;;;0.10;0.10;;;;;;;;;;6220957;23;20020;-91
2022/10/22 00:37:54;;;;;;;0.10;0.10;;;;;;;;;;6223070;23;20012;-91
2022/10/22 00:40:20;;;;;;;0.10;0.10;;;;;;;;;;6223860;23;20516;-90
2022/10/22 00:42:46;;;;;;;0.10;0.10;;;;;;;;;;6220887;23;20033;-92
2022/10/22 00:45:12;;;;;;;0.10;0.10;;;;;;;;;;6220546;23;20066;-91
2022/10/22 00:47:39;;;;;;;0.10;0.10;;;;;;;;;;6220642;23;20376;-91
2022/10/22 00:50:11;;;;;;;0.10;0.10;;;;;;;;;;6220061;23;20043;-90
2022/10/22 00:52:37;;;;;;;0.10;0.10;;;;;;;;;;6220064;23;20012;-92
2022/10/22 00:55:03;;;;;;;0.10;0.10;;;;;;;;;;6219874;23;20400;-91
2022/10/22 00:57:29;;;;;;;0.10;0.10;;;;;;;;;;6220851;23;20039;-91
2022/10/22 00:59:55;;;;;;;0.10;0.10;;;;;;;;;;6219627;23;20429;-91
2022/10/22 01:02:22;;;;;;;0.10;0.10;;;;;;;;;;6219729;23;20437;-91
2022/10/22 01:04:48;;;;;;;0.10;0.10;;;;;;;;;;6219492;23;20048;-91
2022/10/22 01:07:17;;;;;;;0.10;0.10;;;;;;;;;;6219440;23;20032;-91
2022/10/22 01:09:50;;;;;;;0.10;0.10;;;;;;;;;;6219528;23;20016;-91
2022/10/22 01:12:19;;;;;;;0.10;0.10;;;;;;;;;;6219701;23;20012;-91
2022/10/22 01:14:45;;;;;;;0.10;0.10;;;;;;;;;;6219232;23;20012;-91
2022/10/22 01:17:17;;;;;;;0.10;0.10;;;;;;;;;;6219514;23;20270;-91
2022/10/22 01:20:03;;;;;;;0.10;0.10;;;;;;;;;;6219138;23;20016;-90
2022/10/22 01:22:30;;;;;;;0.20;0.20;;;;;;;;;;6194477;23;20069;-90
2022/10/22 01:24:57;;;;;;;0.10;0.10;;;;;;;;;;6219585;23;20012;-91
2022/10/22 01:27:26;;;;;;;0.15;0.15;;;;;;;;;;6219620;23;20012;-91
2022/10/22 01:29:53;;;;;;;0.10;0.10;;;;;;;;;;6218989;23;20035;-91
2022/10/22 01:32:20;;;;;;;0.10;0.10;;;;;;;;;;6219279;23;20052;-92
2022/10/22 01:34:49;;;;;;;0.10;0.10;;;;;;;;;;6219217;23;20016;-91
2022/10/22 01:37:15;;;;;;;0.20;0.20;;;;;;;;;;6219561;23;20044;-92
2022/10/22 01:39:41;;;;;;;0.10;0.10;;;;;;;;;;6219890;23;20306;-92
2022/10/22 01:42:07;;;;;;;0.10;0.10;;;;;;;;;;6219705;23;20004;-92
2022/10/22 01:44:34;;;;;;;0.10;0.10;;;;;;;;;;6219317;23;20044;-91
2022/10/22 01:47:19;;;;;;;0.10;0.10;;;;;;;;;;6219697;23;20008;-92
2022/10/22 01:49:54;;;;;;;0.13;0.13;;;;;;;;;;6219277;23;20023;-92
2022/10/22 01:52:44;;;;;;;0.10;0.10;;;;;;;;;;6218644;23;20016;-92
2022/10/22 01:55:28;;;;;;;0.20;0.20;;;;;;;;;;6219655;23;20433;-92
2022/10/22 01:58:03;;;;;;;0.20;0.20;;;;;;;;;;6220561;23;20089;-92
2022/10/22 02:00:29;;;;;;;0.10;0.10;;;;;;;;;;6218904;23;20016;-91
2022/10/22 02:02:57;;;;;;;0.10;0.10;;;;;;;;;;6219424;23;20464;-91
2022/10/22 02:05:26;;;;;;;0.13;0.13;;;;;;;;;;6219551;23;20043;-92
2022/10/22 02:07:59;;;;;;;0.10;0.10;;;;;;;;;;6219291;23;20031;-93
2022/10/22 02:10:25;;;;;;;0.20;0.20;;;;;;;;;;6219383;23;20020;-91
2022/10/22 02:12:51;;;;;;;0.10;0.10;;;;;;;;;;6219040;23;20392;-91
2022/10/22 02:15:17;;;;;;;0.10;0.10;;;;;;;;;;6219133;23;20012;-94
2022/10/22 02:17:44;;;;;;;0.20;0.20;;;;;;;;;;6219358;23;20250;-92
2022/10/22 02:20:12;;;;;;;0.10;0.10;;;;;;;;;;6219110;23;20095;-88
2022/10/22 02:22:38;;;;;;;0.20;0.20;;;;;;;;;;6226190;23;20380;-91
2022/10/22 02:25:05;;;;;;;0.10;0.10;;;;;;;;;;6218789;23;20012;-91
2022/10/22 02:27:47;;;;;;;0.20;0.20;;;;;;;;;;6219069;23;20011;-91
2022/10/22 02:30:23;;;;;;;0.10;0.10;;;;;;;;;;6218871;23;20024;-91
2022/10/22 02:32:55;;;;;;;0.10;0.10;;;;;;;;;;6218684;23;20020;-90
2022/10/22 02:35:21;;;;;;;0.10;0.10;;;;;;;;;;6243686;23;20402;-91
2022/10/22 02:37:47;;;;;;;0.10;0.10;;;;;;;;;;6218940;23;20388;-90
2022/10/22 02:40:13;;;;;;;0.10;0.10;;;;;;;;;;6218832;23;20012;-90
2022/10/22 02:42:40;;;;;;;0.10;0.10;;;;;;;;;;6218727;23;20012;-90
2022/10/22 02:45:07;;;;;;;0.10;0.10;;;;;;;;;;6219037;23;20008;-90
2022/10/22 02:47:33;;;;;;;0.10;0.10;;;;;;;;;;6221012;23;20123;-92
2022/10/22 02:49:59;;;;;;;0.10;0.10;;;;;;;;;;6220144;23;20019;-91
2022/10/22 02:52:25;;;;;;;0.10;0.10;;;;;;;;;;6219654;23;20433;-92
2022/10/22 02:54:51;;;;;;;0.10;0.10;;;;;;;;;;6220731;23;20016;-92
2022/10/22 02:57:17;;;;;;;0.20;0.20;;;;;;;;;;6220759;23;20012;-92
2022/10/22 02:59:43;;;;;;;0.10;0.10;;;;;;;;;;6218793;23;20310;-91
2022/10/22 03:02:09;;;;;;;0.10;0.10;;;;;;;;;;6219549;23;20019;-91
2022/10/22 03:04:35;;;;;;;0.10;0.10;;;;;;;;;;6220515;23;20012;-91
2022/10/22 03:07:02;;;;;;;0.10;0.10;;;;;;;;;;6194757;23;20340;-91
2022/10/22 03:09:28;;;;;;;0.10;0.10;;;;;;;;;;6219101;23;20103;-91
2022/10/22 03:11:54;;;;;;;0.10;0.10;;;;;;;;;;6219017;23;20024;-91
2022/10/22 03:14:20;;;;;;;0.10;0.10;;;;;;;;;;6218190;23;20012;-92
2022/10/22 03:16:46;;;;;;;0.10;0.10;;;;;;;;;;6219393;23;20047;-92
2022/10/22 03:19:12;;;;;;;0.10;0.10;;;;;;;;;;6219898;23;20090;-92
2022/10/22 03:21:40;;;;;;;0.10;0.10;;;;;;;;;;6219007;23;20434;-92
2022/10/22 03:24:27;;;;;;;0.10;0.10;;;;;;;;;;6219545;23;20019;-92
2022/10/22 03:26:53;;;;;;;0.10;0.10;;;;;;;;;;6243854;23;20279;-92
2022/10/22 03:29:19;;;;;;;0.10;0.10;;;;;;;;;;6219874;23;20441;-91
2022/10/22 03:31:45;;;;;;;0.10;0.10;;;;;;;;;;6218570;23;20074;-90
2022/10/22 03:34:12;;;;;;;0.10;0.10;;;;;;;;;;6221219;23;20074;-91
2022/10/22 03:36:38;;;;;;;0.10;0.10;;;;;;;;;;6222257;23;20381;-91
2022/10/22 03:39:04;;;;;;;0.10;0.10;;;;;;;;;;6221086;23;20023;-90
2022/10/22 03:41:30;;;;;;;0.10;0.10;;;;;;;;;;6221543;23;20050;-90
2022/10/22 03:43:56;;;;;;;0.10;0.10;;;;;;;;;;6221351;23;20019;-91
2022/10/22 03:46:22;;;;;;;0.10;0.10;;;;;;;;;;6222117;23;20008;-92
2022/10/22 03:48:48;;;;;;;0.10;0.10;;;;;;;;;;6222092;23;20012;-91
2022/10/22 03:51:14;;;;;;;0.20;0.20;;;;;;;;;;6226006;23;20051;-92
2022/10/22 03:53:40;;;;;;;0.10;0.10;;;;;;;;;;6225134;23;20016;-91
2022/10/22 03:56:10;;;;;;;0.10;0.10;;;;;;;;;;6223048;23;20008;-91
2022/10/22 03:58:36;;;;;;;0.10;0.10;;;;;;;;;;6223868;23;20042;-92
2022/10/22 04:01:06;;;;;;;0.10;0.10;;;;;;;;;;6222133;23;20012;-91
2022/10/22 04:03:32;;;;;;;0.20;0.20;;;;;;;;;;6221733;23;20008;-90
2022/10/22 04:06:02;;;;;;;0.10;0.10;;;;;;;;;;6220885;23;20310;-91
2022/10/22 04:08:28;;;;;;;0.10;0.10;;;;;;;;;;6220636;23;20012;-90
2022/10/22 04:10:54;;;;;;;0.10;0.10;;;;;;;;;;6220126;23;20012;-90
2022/10/22 04:13:20;;;;;;;0.10;0.10;;;;;;;;;;6220134;23;20020;-90
2022/10/22 04:15:46;;;;;;;0.20;0.20;;;;;;;;;;6220292;23;20018;-91
2022/10/22 04:18:12;;;;;;;0.10;0.10;;;;;;;;;;6220584;23;20012;-91
2022/10/22 04:20:38;;;;;;;0.10;0.10;;;;;;;;;;6221165;23;20012;-91
2022/10/22 04:23:04;;;;;;;0.10;0.10;;;;;;;;;;6220940;23;20062;-90
2022/10/22 04:25:30;;;;;;;0.10;0.10;;;;;;;;;;6221544;23;20011;-90
2022/10/22 04:27:56;;;;;;;0.20;0.20;;;;;;;;;;6224781;23;20377;-91
2022/10/22 04:30:22;;;;;;;0.10;0.10;;;;;;;;;;6227381;23;20020;-91
2022/10/22 04:32:48;;;;;;;0.20;0.20;;;;;;;;;;6228759;23;20016;-92
2022/10/22 04:35:14;;;;;;;0.10;0.10;;;;;;;;;;6226072;23;20015;-90
2022/10/22 04:37:40;;;;;;;0.20;0.20;;;;;;;;;;6225088;23;20019;-90
2022/10/22 04:40:06;;;;;;;0.30;0.30;;;;;;;;;;6225311;23;20375;-91
2022/10/22 04:42:32;;;;;;;0.10;0.10;;;;;;;;;;6225708;23;20171;-90
2022/10/22 04:44:58;;;;;;;0.22;0.22;;;;;;;;;;6221168;23;20019;-90
2022/10/22 04:47:24;;;;;;;0.20;0.20;;;;;;;;;;6221222;23;20008;-90
2022/10/22 04:49:50;;;;;;;0.10;0.10;;;;;;;;;;6219813;23;20034;-90
2022/10/22 04:52:16;;;;;;;0.10;0.10;;;;;;;;;;6219722;23;20070;-90
2022/10/22 04:54:42;;;;;;;0.10;0.10;;;;;;;;;;6219915;23;20012;-91
2022/10/22 04:57:08;;;;;;;0.32;0.32;;;;;;;;;;6219925;23;20023;-91
2022/10/22 04:59:34;;;;;;;0.30;0.30;;;;;;;;;;6219297;23;20012;-91
2022/10/22 05:02:00;;;;;;;0.10;0.10;;;;;;;;;;6219742;23;20023;-90
2022/10/22 05:04:26;;;;;;;0.20;0.20;;;;;;;;;;6219182;23;20012;-90
2022/10/22 05:06:52;;;;;;;0.10;0.10;;;;;;;;;;6219088;23;20464;-91
2022/10/22 05:09:19;;;;;;;0.20;0.20;;;;;;;;;;6220410;23;20070;-91
2022/10/22 05:11:47;;;;;;;0.10;0.10;;;;;;;;;;6220814;23;20019;-91
2022/10/22 05:14:13;;;;;;;0.10;0.10;;;;;;;;;;6219613;23;20016;-91
2022/10/22 05:16:39;;;;;;;0.20;0.20;;;;;;;;;;6219568;23;20015;-91
2022/10/22 05:19:05;;;;;;;0.10;0.10;;;;;;;;;;6219441;23;20016;-91
2022/10/22 05:21:31;;;;;;;0.10;0.10;;;;;;;;;;6219608;23;20323;-90
2022/10/22 05:23:58;;;;;;;0.10;0.10;;;;;;;;;;6219559;23;20449;-91
2022/10/22 05:26:24;;;;;;;0.10;0.10;;;;;;;;;;6219282;23;20012;-90
2022/10/22 05:28:50;;;;;;;0.10;0.10;;;;;;;;;;6219310;23;20429;-91
2022/10/22 05:31:16;;;;;;;0.10;0.10;;;;;;;;;;6218847;23;20074;-89
2022/10/22 05:33:42;;;;;;;0.10;0.10;;;;;;;;;;6219369;23;20016;-91
2022/10/22 05:36:09;;;;;;;0.10;0.10;;;;;;;;;;6218708;23;20066;-91
2022/10/22 05:38:35;;;;;;;0.17;0.17;;;;;;;;;;6219366;23;20031;-92
2022/10/22 05:41:01;;;;;;;0.10;0.10;;;;;;;;;;6219060;23;20087;-92
2022/10/22 05:43:28;;;;;;;0.20;0.20;;;;;;;;;;6219617;23;20012;-92
2022/10/22 05:45:54;;;;;;;0.10;0.10;;;;;;;;;;6219996;23;20012;-91
2022/10/22 05:48:20;;;;;;;0.30;0.30;;;;;;;;;;6219673;23;20307;-91
2022/10/22 05:50:49;;;;;;;0.20;0.20;;;;;;;;;;6219105;23;20016;-91
2022/10/22 05:53:15;;;;;;;0.10;0.10;;;;;;;;;;6220055;23;20382;-91
2022/10/22 05:55:41;;;;;;;0.10;0.10;;;;;;;;;;6219117;23;20095;-92
2022/10/22 05:58:07;;;;;;;0.10;0.10;;;;;;;;;;6219676;23;20012;-91
2022/10/22 06:00:33;;;;;;;0.10;0.10;;;;;;;;;;6220404;23;20016;-91
2022/10/22 06:02:59;;;;;;;0.10;0.10;;;;;;;;;;6218990;23;20095;-93
2022/10/22 06:05:25;;;;;;;0.10;0.10;;;;;;;;;;6219058;23;20008;-92
2022/10/22 06:07:51;;;;;;;0.20;0.20;;;;;;;;;;6220811;23;20377;-90
2022/10/22 06:10:18;;;;;;;0.15;0.15;;;;;;;;;;6218998;23;20065;-90
2022/10/22 06:12:44;;;;;;;0.30;0.30;;;;;;;;;;6218538;23;20480;-91
2022/10/22 06:15:14;;;;;;;0.30;0.30;;;;;;;;;;6218574;23;20016;-91
2022/10/22 06:17:40;;;;;;;0.10;0.10;;;;;;;;;;6218997;23;20023;-92
2022/10/22 06:20:06;;;;;;;1.38;1.27;;;;;;;;;;6218907;23;20345;-91
2022/10/22 06:22:32;;;;;;;0.10;0.10;;;;;;;;;;6218979;23;20020;-91
2022/10/22 06:24:58;;;;;;;0.10;0.10;;;;;;;;;;6218993;23;20008;-91
2022/10/22 06:27:24;;;;;;;0.10;0.10;;;;;;;;;;6219042;23;20012;-91
2022/10/22 06:29:51;;;;;;;0.10;0.10;;;;;;;;;;6218772;23;20020;-91
2022/10/22 06:32:17;;;;;;;0.10;0.10;;;;;;;;;;6218988;23;20075;-91
2022/10/22 06:34:43;;;;;;;0.10;0.10;;;;;;;;;;6218381;23;20011;-91
2022/10/22 06:37:10;;;;;;;0.15;0.15;;;;;;;;;;6218785;23;20518;-91
2022/10/22 06:39:35;;;;;;;0.10;0.10;;;;;;;;;;6218749;23;20019;-91
2022/10/22 06:42:02;;;;;;;0.20;0.20;;;;;;;;;;6218510;23;20357;-91
2022/10/22 06:44:27;;;;;;;0.20;0.20;;;;;;;;;;6218903;23;20430;-91
2022/10/22 06:46:53;;;;;;;0.10;0.10;;;;;;;;;;6218509;23;20038;-90
2022/10/22 06:49:20;;;;;;;0.10;0.10;;;;;;;;;;6218767;23;20310;-91
2022/10/22 06:51:49;;;;;;;0.10;0.10;;;;;;;;;;6218589;23;20083;-90
2022/10/22 06:54:15;;;;;;;0.10;0.10;;;;;;;;;;6218191;23;20023;-88
2022/10/22 06:56:41;;;;;;;0.10;0.10;;;;;;;;;;6217845;23;20016;-89
2022/10/22 06:59:07;;;;;;;0.10;0.10;;;;;;;;;;6217790;23;20350;-90
2022/10/22 07:01:34;;;;;;;0.10;0.10;;;;;;;;;;6217920;23;20012;-88
2022/10/22 07:04:00;;;;;;;0.20;0.20;;;;;;;;;;6218154;23;20565;-89
2022/10/22 07:06:26;;;;;;;0.20;0.20;;;;;;;;;;6217949;23;20008;-88
2022/10/22 07:08:53;;;;;;;0.10;0.10;;;;;;;;;;6219991;23;20481;-88
2022/10/22 07:11:41;;;;;;;0.10;0.10;;;;;;;;;;6220773;23;20103;-95
2022/10/22 07:14:07;;;;;;;0.20;0.20;;;;;;;;;;6220863;23;20028;-91
2022/10/22 07:16:33;;;;;;;0.10;0.10;;;;;;;;;;6219904;23;20062;-90
2022/10/22 07:19:01;;;;;;;0.10;0.10;;;;;;;;;;6220733;23;20400;-91
2022/10/22 07:21:27;;;;;;;0.10;0.10;;;;;;;;;;6220486;23;20019;-90
2022/10/22 07:23:55;;;;;;;0.10;0.10;;;;;;;;;;6220757;23;20008;-94
2022/10/22 07:26:23;;;;;;;0.20;0.20;;;;;;;;;;6220801;23;20061;-88
2022/10/22 07:28:49;;;;;;;0.10;0.10;;;;;;;;;;6220423;23;20074;-89
2022/10/22 07:31:15;;;;;;;0.10;0.10;;;;;;;;;;6219897;23;20024;-88
2022/10/22 07:33:41;;;;;;;0.25;0.25;;;;;;;;;;6244945;23;20472;-89
2022/10/22 07:36:08;;;;;;;0.10;0.10;;;;;;;;;;6220021;23;20431;-91
2022/10/22 07:38:34;;;;;;;0.10;0.10;;;;;;;;;;6220077;23;20018;-90
2022/10/22 07:41:00;;;;;;;0.20;0.20;;;;;;;;;;6219741;23;20083;-90
2022/10/22 07:43:26;;;;;;;0.10;0.10;;;;;;;;;;6220095;23;20385;-89
2022/10/22 07:45:54;;;;;;;0.10;0.10;;;;;;;;;;6220253;23;20106;-90
2022/10/22 07:48:20;;;;;;;0.10;0.10;;;;;;;;;;6220336;23;20050;-90
2022/10/22 07:50:46;;;;;;;0.10;0.10;;;;;;;;;;6219933;23;20012;-91
2022/10/22 07:53:12;;;;;;;0.10;0.10;;;;;;;;;;6220179;23;20119;-89
2022/10/22 07:55:38;;;;;;;0.20;0.20;;;;;;;;;;6219627;23;20446;-91
2022/10/22 07:58:04;;;;;;;0.10;0.10;;;;;;;;;;6220427;23;20016;-89
2022/10/22 08:00:30;;;;;;;0.20;0.20;;;;;;;;;;6219779;23;20031;-92
2022/10/22 08:02:56;;;;;;;0.10;0.10;;;;;;;;;;6220140;23;20012;-91
2022/10/22 08:05:24;;;;;;;0.43;0.35;;;;;;;;;;6220007;23;20337;-91
2022/10/22 08:07:50;;;;;;;0.50;0.50;;;;;;;;;;6219882;23;20061;-90
2022/10/22 08:10:16;;;;;;;0.10;0.10;;;;;;;;;;6219384;23;20015;-88
2022/10/22 08:12:43;;;;;;;0.30;0.30;;;;;;;;;;6219559;23;20027;-91
2022/10/22 08:15:09;;;;;;;0.10;0.10;;;;;;;;;;6220143;23;20016;-91
2022/10/22 08:17:35;;;;;;;0.10;0.10;;;;;;;;;;6219909;23;20022;-89
2022/10/22 08:20:01;;;;;;;0.10;0.10;;;;;;;;;;6218647;23;20016;-89
2022/10/22 08:22:27;;;;;;;0.10;0.10;;;;;;;;;;6219822;23;20012;-89
2022/10/22 08:24:53;;;;;;;0.10;0.10;;;;;;;;;;6219465;23;20016;-91
2022/10/22 08:27:19;;;;;;;0.28;0.28;;;;;;;;;;6219621;23;20118;-89
2022/10/22 08:29:45;;;;;;;0.10;0.10;;;;;;;;;;6219220;23;20309;-88
2022/10/22 08:32:11;;;;;;;0.10;0.10;;;;;;;;;;6219403;23;20019;-88
2022/10/22 08:34:37;;;;;;;0.20;0.20;;;;;;;;;;6219272;23;20023;-89
2022/10/22 08:37:03;;;;;;;0.10;0.10;;;;;;;;;;6219784;23;20094;-88
2022/10/22 08:39:29;;;;;;;0.10;0.10;;;;;;;;;;6219226;23;20051;-89
2022/10/22 08:42:01;;;;;;;0.15;0.15;;;;;;;;;;6219424;23;20015;-90
2022/10/22 08:44:42;;;;;;;0.22;0.20;;;;;;;;;;6219251;23;20341;-89
2022/10/22 08:47:14;;;;;;;0.10;0.10;;;;;;;;;;6219128;23;20111;-91
2022/10/22 08:49:40;;;;;;;0.28;0.28;;;;;;;;;;6219130;23;20067;-90
2022/10/22 08:52:07;;;;;;;0.10;0.10;;;;;;;;;;6218964;23;20051;-89
2022/10/22 08:54:44;;;;;;;0.20;0.20;;;;;;;;;;6219132;23;20394;-89
2022/10/22 08:57:10;;;;;;;0.10;0.10;;;;;;;;;;6219284;23;20024;-91
2022/10/22 08:59:38;;;;;;;0.20;0.20;;;;;;;;;;6218659;23;20016;-91
2022/10/22 09:02:08;;;;;;;0.10;0.10;;;;;;;;;;6218998;23;20012;-92
2022/10/22 09:04:43;;;;;;;0.20;0.20;;;;;;;;;;6219761;23;20087;-91
2022/10/22 09:07:09;;;;;;;0.10;0.10;;;;;;;;;;6218858;23;20012;-92
2022/10/22 09:09:38;;;;;;;0.20;0.20;;;;;;;;;;6219278;23;20023;-90
2022/10/22 09:12:07;;;;;;;0.10;0.10;;;;;;;;;;6218902;23;20012;-91
2022/10/22 09:14:33;;;;;;;0.10;0.10;;;;;;;;;;6219211;23;20008;-92
2022/10/22 09:17:02;;;;;;;0.20;0.20;;;;;;;;;;6218487;23;20426;-90
2022/10/22 09:19:48;;;;;;;0.13;0.13;;;;;;;;;;6222694;23;20031;-91
2022/10/22 09:22:33;;;;;;;0.10;0.10;;;;;;;;;;6218918;23;20129;-89
2022/10/22 09:25:02;;;;;;;0.10;0.10;;;;;;;;;;6218914;23;20086;-92
2022/10/22 09:27:29;;;;;;;0.10;0.10;;;;;;;;;;6219216;23;20065;-90
2022/10/22 09:29:55;;;;;;;0.10;0.10;;;;;;;;;;6218763;23;20397;-91
2022/10/22 09:32:21;;;;;;;0.10;0.10;;;;;;;;;;6218436;23;20020;-90
2022/10/22 09:34:48;;;;;;;0.10;0.10;;;;;;;;;;6218981;23;20322;-91
2022/10/22 09:37:16;;;;;;;0.10;0.10;;;;;;;;;;6221890;23;20042;-91
2022/10/22 09:39:46;;;;;;;0.10;0.10;;;;;;;;;;6218833;23;20099;-90
2022/10/22 09:42:16;;;;;;;0.10;0.10;;;;;;;;;;6218663;23;20035;-90
2022/10/22 09:44:42;;;;;;;0.10;0.10;;;;;;;;;;6218224;23;20070;-90
2022/10/22 09:47:32;;;;;;;0.20;0.20;;;;;;;;;;6218532;23;20008;-89
2022/10/22 09:50:07;;;;;;;0.10;0.10;;;;;;;;;;6200090;23;20016;-88
2022/10/22 09:52:33;;;;;;;0.10;0.10;;;;;;;;;;6243310;23;20012;-90
2022/10/22 09:55:01;;;;;;;0.10;0.10;;;;;;;;;;6218477;23;20337;-89
2022/10/22 09:57:26;;;;;;;0.10;0.10;;;;;;;;;;6218267;23;20467;-89
2022/10/22 09:59:56;;;;;;;0.10;0.10;;;;;;;;;;6217856;23;20016;-89
2022/10/22 10:02:22;;;;;;;0.10;0.10;;;;;;;;;;6218627;23;20016;-91
2022/10/22 10:04:49;;;;;;;0.10;0.10;;;;;;;;;;6217949;23;20054;-91
2022/10/22 10:07:16;;;;;;;0.10;0.10;;;;;;;;;;6218162;23;20441;-87
2022/10/22 10:09:42;;;;;;;0.20;0.20;;;;;;;;;;6218616;23;20023;-90
2022/10/22 10:12:26;;;;;;;0.10;0.10;;;;;;;;;;6218699;23;20012;-90
2022/10/22 10:15:11;;;;;;;0.10;0.10;;;;;;;;;;6243665;23;20070;-89
2022/10/22 10:17:47;;;;;;;0.10;0.10;;;;;;;;;;6217971;23;20453;-88
2022/10/22 10:20:17;;;;;;;0.10;0.10;;;;;;;;;;6218022;23;20019;-89
2022/10/22 10:22:53;;;;;;;0.10;0.10;;;;;;;;;;6220506;23;20098;-88
2022/10/22 10:25:23;;;;;;;0.10;0.10;;;;;;;;;;6219065;23;20070;-90
2022/10/22 10:27:52;;;;;;;0.10;0.10;;;;;;;;;;6218048;23;20392;-89
2022/10/22 10:30:19;;;;;;;0.20;0.20;;;;;;;;;;6218976;23;20023;-91
2022/10/22 10:32:54;;;;;;;0.10;0.10;;;;;;;;;;6220444;23;20402;-88
2022/10/22 10:35:27;;;;;;;0.10;0.10;;;;;;;;;;6217781;23;20047;-88
2022/10/22 10:38:01;;;;;;;0.15;0.15;;;;;;;;;;6218456;23;20037;-89
2022/10/22 10:40:36;;;;;;;0.10;0.10;;;;;;;;;;6218186;23;20016;-88
2022/10/22 10:43:05;;;;;;;0.10;0.10;;;;;;;;;;6242933;23;20012;-90
2022/10/22 10:45:32;;;;;;;0.10;0.10;;;;;;;;;;6218245;23;20384;-90
2022/10/22 10:48:01;;;;;;;0.20;0.20;;;;;;;;;;6218146;23;20008;-89
2022/10/22 10:50:33;;;;;;;0.10;0.10;;;;;;;;;;6218111;23;20034;-91
2022/10/22 10:53:13;;;;;;;0.10;0.10;;;;;;;;;;6216304;23;20326;-93
2022/10/22 10:55:47;;;;;;;0.10;0.10;;;;;;;;;;6218436;23;20032;-92
2022/10/22 10:58:21;;;;;;;0.10;0.10;;;;;;;;;;6218696;23;20369;-92
2022/10/22 11:00:50;;;;;;;0.10;0.10;;;;;;;;;;6218217;23;20015;-92
2022/10/22 11:03:34;;;;;;;0.10;0.10;;;;;;;;;;6217579;23;20085;-92
2022/10/22 11:06:10;;;;;;;0.20;0.20;;;;;;;;;;6218994;23;20014;-92
2022/10/22 11:08:37;;;;;;;0.10;0.10;;;;;;;;;;6219041;23;20012;-93
2022/10/22 11:11:05;;;;;;;0.13;0.13;;;;;;;;;;6219792;23;20016;-94
2022/10/22 11:13:40;;;;;;;0.10;0.10;;;;;;;;;;6218163;23;20012;-95
2022/10/22 11:16:09;;;;;;;0.10;0.10;;;;;;;;;;6246863;23;20087;-93
2022/10/22 11:22:10;;;;;;;0.13;0.13;;;;;;;;;;6162795;23;20020;-96
2022/10/22 11:27:37;;;;;;;0.10;0.10;;;;;;;;;;6301265;22;20023;-95
2022/10/22 11:30:08;;;;;;;0.10;0.10;;;;;;;;;;6254542;22;20015;-93
2022/10/22 11:32:35;;;;;;;0.40;0.40;;;;;;;;;;6254816;22;20484;-93
2022/10/22 11:35:02;;;;;;;0.10;0.10;;;;;;;;;;6255881;22;20070;-94
2022/10/22 11:37:33;;;;;;;0.10;0.10;;;;;;;;;;6255114;22;20011;-96
2022/10/22 11:40:13;;;;;;;0.20;0.20;;;;;;;;;;6256248;22;20012;-93
2022/10/22 11:42:42;;;;;;;0.20;0.20;;;;;;;;;;6254605;22;20012;-94
2022/10/22 11:45:14;;;;;;;0.10;0.10;;;;;;;;;;6254768;22;20420;-94
2022/10/22 11:47:59;;;;;;;0.10;0.10;;;;;;;;;;6279350;22;20018;-91
2022/10/22 11:50:43;;;;;;;0.20;0.20;;;;;;;;;;6279304;22;20021;-93
2022/10/22 11:53:12;;;;;;;0.50;0.50;;;;;;;;;;6253917;22;20019;-93
2022/10/22 11:55:44;;;;;;;0.10;0.10;;;;;;;;;;6281555;22;20015;-94
2022/10/22 11:58:29;;;;;;;0.10;0.10;;;;;;;;;;6281499;22;20015;-94
2022/10/22 12:00:56;;;;;;;0.15;0.15;;;;;;;;;;6281328;22;20015;-94
2022/10/22 12:03:28;;;;;;;0.17;0.17;;;;;;;;;;6256196;22;20015;-94
2022/10/22 12:06:14;;;;;;;0.10;0.10;;;;;;;;;;6281226;22;20011;-93
2022/10/22 12:08:50;;;;;;;0.10;0.10;;;;;;;;;;6280481;22;20177;-92
2022/10/22 12:11:19;;;;;;;0.10;0.10;;;;;;;;;;6280850;22;20068;-92
2022/10/22 12:14:00;;;;;;;0.30;0.30;;;;;;;;;;6280707;22;20048;-93
2022/10/22 12:17:00;;;;;;;0.10;0.10;;;;;;;;;;6307134;22;20100;-92
2022/10/22 12:19:27;;;;;;;0.20;0.20;;;;;;;;;;6276226;22;20444;-92
2022/10/22 12:22:06;;;;;;;0.55;0.55;;;;;;;;;;6255101;22;20011;-93
2022/10/22 12:24:34;;;;;;;0.20;0.20;;;;;;;;;;6281354;22;20008;-91
2022/10/22 12:27:00;;;;;;;0.10;0.10;;;;;;;;;;6255925;22;20024;-91
2022/10/22 12:29:27;;;;;;;0.20;0.20;;;;;;;;;;6306804;22;20046;-91
2022/10/22 12:31:54;;;;;;;0.10;0.10;;;;;;;;;;6257207;22;20043;-91
2022/10/22 12:34:24;;;;;;;0.10;0.10;;;;;;;;;;6255530;22;20111;-94
2022/10/22 12:36:51;;;;;;;0.10;0.10;;;;;;;;;;6283890;22;20526;-90
2022/10/22 12:39:21;;;;;;;0.10;0.10;;;;;;;;;;6263441;22;20019;-93
2022/10/22 12:41:47;;;;;;;0.22;0.22;;;;;;;;;;6259461;22;20011;-89
2022/10/22 12:44:14;;;;;;;0.10;0.10;;;;;;;;;;6254690;22;20391;-92
2022/10/22 12:46:42;;;;;;;0.20;0.20;;;;;;;;;;6306078;22;20007;-92
2022/10/22 12:49:11;;;;;;;0.10;0.10;;;;;;;;;;6256830;22;20034;-93
2022/10/22 12:51:37;;;;;;;0.10;0.10;;;;;;;;;;6256674;22;20011;-92
2022/10/22 12:54:07;;;;;;;0.20;0.20;;;;;;;;;;6255110;22;20015;-94
2022/10/22 12:56:33;;;;;;;0.10;0.10;;;;;;;;;;6255416;22;20016;-91
2022/10/22 12:59:05;;;;;;;0.10;0.10;;;;;;;;;;6255109;22;20019;-87
2022/10/22 13:01:36;;;;;;;0.10;0.10;;;;;;;;;;6254236;22;20072;-89
2022/10/22 13:04:21;;;;;;;0.10;0.10;;;;;;;;;;6254346;22;20097;-89
2022/10/22 13:06:48;;;;;;;0.10;0.10;;;;;;;;;;6279692;22;20060;-95
2022/10/22 13:09:20;;;;;;;0.10;0.10;;;;;;;;;;6255673;22;20011;-96
2022/10/22 13:11:49;;;;;;;0.10;0.10;;;;;;;;;;6282173;22;20145;-93
2022/10/22 13:14:26;;;;;;;0.20;0.20;;;;;;;;;;6280107;22;20115;-90
2022/10/22 13:17:04;;;;;;;0.10;0.10;;;;;;;;;;6281212;22;20367;-92
2022/10/22 13:19:36;;;;;;;0.10;0.10;;;;;;;;;;6305271;22;20011;-91
2022/10/22 13:22:02;;;;;;;0.10;0.10;;;;;;;;;;6280160;22;20018;-91
2022/10/22 13:24:29;;;;;;;0.10;0.10;;;;;;;;;;6254304;22;20016;-91
2022/10/22 13:26:55;;;;;;;0.63;0.45;;;;;;;;;;6254211;22;20135;-92
2022/10/22 13:29:22;;;;;;;0.20;0.20;;;;;;;;;;6255019;22;20094;-92
2022/10/22 13:31:49;;;;;;;0.20;0.20;;;;;;;;;;6254841;22;20012;-90
2022/10/22 13:34:16;;;;;;;0.17;0.17;;;;;;;;;;6254352;22;20007;-93
2022/10/22 13:36:42;;;;;;;0.10;0.10;;;;;;;;;;6255661;22;20011;-94
2022/10/22 13:39:12;;;;;;;0.10;0.10;;;;;;;;;;6255289;22;20011;-93
2022/10/22 13:41:39;;;;;;;0.10;0.10;;;;;;;;;;6255767;22;20039;-93
2022/10/22 13:44:05;;;;;;;0.10;0.10;;;;;;;;;;6254815;22;20037;-92
2022/10/22 13:46:31;;;;;;;0.10;0.10;;;;;;;;;;6252918;22;20274;-92
2022/10/22 13:48:58;;;;;;;0.10;0.10;;;;;;;;;;6278522;22;20014;-92
2022/10/22 13:51:26;;;;;;;0.20;0.20;;;;;;;;;;6253060;22;20061;-92
2022/10/22 13:53:52;;;;;;;0.10;0.10;;;;;;;;;;6254509;22;20041;-92
2022/10/22 13:56:18;;;;;;;0.10;0.10;;;;;;;;;;6254704;22;20210;-92
2022/10/22 13:58:44;;;;;;;0.10;0.10;;;;;;;;;;6254202;22;20015;-93
2022/10/22 14:01:28;;;;;;;0.10;0.10;;;;;;;;;;6254742;22;20011;-91
2022/10/22 14:03:56;;;;;;;0.10;0.10;;;;;;;;;;6254248;22;20007;-90
2022/10/22 14:06:23;;;;;;;0.10;0.10;;;;;;;;;;6253883;22;20377;-94
2022/10/22 14:08:53;;;;;;;0.10;0.10;;;;;;;;;;6255013;22;20015;-95
2022/10/22 14:11:19;;;;;;;0.10;0.10;;;;;;;;;;6255118;22;20015;-95
2022/10/22 14:13:45;;;;;;;0.20;0.20;;;;;;;;;;6254643;22;20054;-95
2022/10/22 14:16:16;;;;;;;0.10;0.10;;;;;;;;;;6255006;22;20022;-95
2022/10/22 14:18:42;;;;;;;0.20;0.20;;;;;;;;;;6254637;22;20047;-94
2022/10/22 14:21:10;;;;;;;0.10;0.10;;;;;;;;;;6254501;22;20019;-95
2022/10/22 14:23:36;;;;;;;0.10;0.10;;;;;;;;;;6254569;22;20090;-95
2022/10/22 14:26:02;;;;;;;0.10;0.10;;;;;;;;;;6253843;22;20066;-93
2022/10/22 14:28:28;;;;;;;0.10;0.10;;;;;;;;;;6254537;22;20227;-91
2022/10/22 14:30:54;;;;;;;0.10;0.10;;;;;;;;;;6254233;22;20046;-90
2022/10/22 14:33:20;;;;;;;0.10;0.10;;;;;;;;;;6253661;22;20479;-92
2022/10/22 14:35:49;;;;;;;0.10;0.10;;;;;;;;;;6279725;22;20011;-92
2022/10/22 14:38:15;;;;;;;0.10;0.10;;;;;;;;;;6254487;22;20019;-93
2022/10/22 14:40:44;;;;;;;0.30;0.30;;;;;;;;;;6254486;22;20007;-94
2022/10/22 14:43:12;;;;;;;0.10;0.10;;;;;;;;;;6255242;22;20396;-93
2022/10/22 14:45:38;;;;;;;0.10;0.10;;;;;;;;;;6254893;22;20068;-95
2022/10/22 14:48:05;;;;;;;0.10;0.10;;;;;;;;;;6254456;22;20146;-95
2022/10/22 14:50:31;;;;;;;0.10;0.10;;;;;;;;;;6254885;22;20015;-94
2022/10/22 14:52:58;;;;;;;0.10;0.10;;;;;;;;;;6254033;22;20101;-90
2022/10/22 14:55:25;;;;;;;0.10;0.10;;;;;;;;;;6279265;22;20390;-93
2022/10/22 14:57:52;;;;;;;0.10;0.10;;;;;;;;;;6254421;22;20014;-93